createdAt,value
2019-06-07T00:03:32.232Z,18.07
2019-06-07T00:08:37.871Z,19.10
2019-06-07T00:13:43.176Z,18.23
2019-06-07T00:18:48.470Z,19.60
2019-06-07T00:23:54.416Z,21.90
2019-06-07T00:29:02.616Z,20.77
2019-06-07T00:34:10.319Z,23.80
2019-06-07T00:39:20.298Z,20.87
2019-06-07T00:44:23.494Z,18.53
2019-06-07T00:49:40.339Z,19.13
2019-06-07T00:54:37.993Z,18.90
2019-06-07T00:59:43.120Z,18.70
2019-06-07T01:04:48.548Z,17.77
2019-06-07T01:09:53.970Z,15.47
2019-06-07T01:14:59.194Z,18.73
2019-06-07T01:20:06.407Z,17.27
2019-06-07T01:25:13.753Z,16.70
2019-06-07T01:30:23.269Z,17.03
2019-06-07T01:35:26.964Z,20.07
2019-06-07T01:40:33.777Z,18.97
2019-06-07T01:45:39.956Z,18.00
2019-06-07T01:50:45.472Z,20.83
2019-06-07T01:55:51.073Z,20.97
2019-06-07T02:00:56.418Z,20.60
2019-06-07T02:06:01.766Z,28.63
2019-06-07T02:11:07.244Z,28.27
2019-06-07T02:16:14.625Z,22.70
2019-06-07T02:21:23.151Z,22.60
2019-06-07T02:26:30.009Z,24.87
2019-06-07T02:31:39.068Z,24.20
2019-06-07T02:36:41.898Z,27.97
2019-06-07T02:41:47.573Z,25.70
2019-06-07T02:46:52.847Z,22.80
2019-06-07T02:51:58.224Z,23.90
2019-06-07T02:57:05.110Z,24.47
2019-06-07T03:02:10.271Z,23.30
2019-06-07T03:07:17.580Z,24.00
2019-06-07T03:12:23.501Z,25.73
2019-06-07T03:17:47.921Z,29.93
2019-06-07T03:22:53.430Z,27.17
2019-06-07T03:27:58.836Z,27.90
2019-06-07T03:33:04.296Z,26.47
2019-06-07T03:38:09.733Z,27.77
2019-06-07T03:43:14.892Z,29.83
2019-06-07T03:48:20.539Z,29.63
2019-06-07T03:53:29.211Z,27.17
2019-06-07T03:58:44.629Z,30.03
2019-06-07T04:03:46.972Z,33.30
2019-06-07T04:08:48.487Z,30.67
2019-06-07T04:13:53.834Z,29.63
2019-06-07T04:18:59.011Z,32.40
2019-06-07T04:24:04.515Z,30.80
2019-06-07T04:29:32.245Z,30.17
2019-06-07T04:34:16.654Z,29.87
2019-06-07T04:39:23.670Z,29.00
2019-06-07T04:44:28.992Z,33.00
2019-06-07T04:49:39.227Z,29.87
2019-06-07T04:54:45.845Z,28.10
2019-06-07T05:00:33.746Z,27.80
2019-06-07T05:04:56.895Z,27.07
2019-06-07T05:10:02.491Z,31.87
2019-06-07T05:15:08.029Z,26.33
2019-06-07T05:20:14.261Z,26.67
2019-06-07T05:25:19.645Z,25.67
2019-06-07T05:35:44.806Z,28.33
2019-06-07T05:40:50.030Z,28.17
2019-06-07T05:45:55.494Z,32.10
2019-06-07T05:51:00.819Z,27.97
2019-06-07T05:56:06.438Z,24.77
2019-06-07T06:01:41.999Z,22.73
2019-06-07T06:06:19.533Z,25.97
2019-06-07T06:11:42.973Z,26.07
2019-06-07T06:16:31.963Z,25.10
2019-06-07T06:21:38.535Z,24.80
2019-06-07T06:26:51.189Z,25.80
2019-06-07T06:32:39.444Z,25.27
2019-06-07T06:36:58.617Z,27.73
2019-06-07T06:42:04.044Z,24.30
2019-06-07T06:47:09.139Z,25.97
2019-06-07T06:52:14.349Z,23.50
2019-06-07T06:57:21.985Z,23.83
2019-06-07T07:02:28.785Z,22.47
2019-06-07T07:07:36.239Z,21.53
2019-06-07T07:12:42.920Z,24.43
2019-06-07T07:18:00.683Z,20.97
2019-06-07T07:22:57.077Z,23.37
2019-06-07T07:28:02.677Z,27.07
2019-06-07T07:33:07.946Z,23.27
2019-06-07T07:38:15.009Z,23.23
2019-06-07T07:43:22.135Z,21.60
2019-06-07T07:48:27.310Z,23.57
2019-06-07T07:53:48.583Z,20.50
2019-06-07T07:58:41.840Z,21.50
2019-06-07T08:03:48.157Z,19.57
2019-06-07T08:08:57.029Z,19.20
2019-06-07T08:14:05.180Z,24.73
2019-06-07T08:19:14.754Z,19.53
2019-06-07T08:24:20.008Z,18.97
2019-06-07T08:29:43.844Z,18.47
2019-06-07T08:34:35.006Z,21.10
2019-06-07T08:39:41.664Z,21.20
2019-06-07T08:44:47.267Z,20.17
2019-06-07T08:49:59.606Z,18.90
2019-06-07T08:55:04.921Z,18.73
2019-06-07T09:00:42.561Z,20.10
2019-06-07T09:05:20.887Z,22.37
2019-06-07T09:10:26.487Z,16.87
2019-06-07T09:15:31.875Z,16.57
2019-06-07T09:20:51.261Z,17.13
2019-06-07T09:26:07.917Z,17.40
2019-06-07T09:31:10.386Z,18.97
2019-06-07T09:36:14.921Z,21.43
2019-06-07T09:41:21.664Z,19.27
2019-06-07T09:46:27.229Z,17.33
2019-06-07T09:51:32.361Z,16.97
2019-06-07T09:56:39.237Z,16.90
2019-06-07T10:01:44.582Z,16.90
2019-06-07T10:06:50.563Z,16.90
2019-06-07T10:11:58.207Z,18.47
2019-06-07T10:17:03.437Z,17.87
2019-06-07T10:22:09.710Z,17.63
2019-06-07T10:27:15.010Z,19.93
2019-06-07T10:32:20.293Z,18.57
2019-06-07T10:37:25.873Z,17.10
2019-06-07T10:42:34.419Z,18.43
2019-06-07T10:47:39.708Z,17.10
2019-06-07T10:52:44.855Z,17.13
2019-06-07T10:57:50.941Z,16.50
2019-06-07T11:02:56.541Z,15.47
2019-06-07T11:08:01.779Z,14.60
2019-06-07T11:13:08.248Z,14.63
2019-06-07T11:18:14.466Z,14.27
2019-06-07T11:23:21.032Z,14.67
2019-06-07T11:28:28.205Z,13.33
2019-06-07T11:33:33.427Z,14.53
2019-06-07T11:38:40.990Z,14.83
2019-06-07T11:43:48.571Z,13.60
2019-06-07T11:48:53.902Z,14.70
2019-06-07T11:53:59.044Z,13.43
2019-06-07T11:59:04.362Z,13.50
2019-06-07T12:04:09.606Z,12.20
2019-06-07T12:09:16.670Z,12.20
2019-06-07T12:14:21.800Z,10.60
2019-06-07T12:19:27.082Z,10.97
2019-06-07T12:24:32.838Z,11.33
2019-06-07T12:29:38.003Z,8.80
2019-06-07T12:34:45.758Z,8.73
2019-06-07T12:39:51.052Z,8.07
2019-06-07T12:44:57.021Z,9.13
2019-06-07T12:50:02.445Z,9.17
2019-06-07T12:55:07.831Z,7.13
2019-06-07T13:00:16.139Z,6.63
2019-06-07T13:05:23.883Z,7.70
2019-06-07T13:10:32.073Z,7.43
2019-06-07T13:15:37.262Z,6.60
2019-06-07T13:20:44.682Z,6.77
2019-06-07T13:25:50.085Z,5.50
2019-06-07T13:30:55.346Z,5.33
2019-06-07T13:36:00.819Z,5.67
2019-06-07T13:41:05.999Z,6.17
2019-06-07T13:46:13.028Z,6.27
2019-06-07T13:51:19.190Z,5.73
2019-06-07T13:56:26.074Z,5.77
2019-06-07T14:01:32.410Z,6.43
2019-06-07T14:06:37.837Z,6.43
2019-06-07T14:11:50.439Z,6.70
2019-06-07T14:16:51.990Z,6.50
2019-06-07T14:21:57.520Z,6.80
2019-06-07T14:27:09.000Z,8.33
2019-06-07T14:32:14.249Z,6.77
2019-06-07T14:37:19.498Z,8.23
2019-06-07T14:42:25.375Z,8.30
2019-06-07T14:47:32.009Z,7.73
2019-06-07T14:52:37.371Z,7.83
2019-06-07T14:57:44.133Z,8.10
2019-06-07T15:02:50.693Z,9.03
2019-06-07T15:07:56.145Z,8.23
2019-06-07T15:13:01.408Z,8.57
2019-06-07T15:18:07.612Z,8.50
2019-06-07T15:23:13.768Z,8.87
2019-06-07T15:28:19.295Z,9.10
2019-06-07T15:33:24.501Z,8.93
2019-06-07T15:38:31.039Z,8.87
2019-06-07T15:43:37.397Z,9.00
2019-06-07T15:48:45.015Z,7.80
2019-06-07T15:53:50.199Z,8.73
2019-06-07T15:58:55.468Z,8.37
2019-06-07T16:04:00.754Z,8.77
2019-06-07T16:09:08.366Z,8.83
2019-06-07T16:14:14.915Z,7.67
2019-06-07T16:19:20.117Z,7.80
2019-06-07T16:24:25.259Z,8.40
2019-06-07T16:29:30.556Z,7.80
2019-06-07T16:34:37.811Z,7.07
2019-06-07T16:39:42.794Z,7.63
2019-06-07T16:44:50.420Z,7.50
2019-06-07T16:49:55.614Z,8.13
2019-06-07T16:55:01.164Z,7.20
2019-06-07T17:00:07.354Z,8.07
2019-06-07T17:05:14.219Z,7.10
2019-06-07T17:10:20.046Z,9.50
2019-06-07T17:15:28.671Z,7.97
2019-06-07T17:20:33.828Z,10.70
2019-06-07T17:25:39.509Z,6.90
2019-06-07T17:30:46.094Z,8.17
2019-06-07T17:35:52.381Z,8.07
2019-06-07T17:40:57.613Z,7.20
2019-06-07T17:46:02.812Z,8.50
2019-06-07T17:51:09.111Z,8.27
2019-06-07T17:56:14.521Z,7.77
2019-06-07T18:01:21.758Z,8.97
2019-06-07T18:06:27.161Z,8.83
2019-06-07T18:11:32.524Z,9.67
2019-06-07T18:16:38.043Z,9.00
2019-06-07T18:21:44.883Z,8.50
2019-06-07T18:26:50.546Z,13.53
2019-06-07T18:31:56.269Z,15.97
2019-06-07T18:37:01.532Z,17.67
2019-06-07T18:42:06.861Z,20.77
2019-06-07T18:47:12.193Z,21.83
2019-06-07T18:52:21.313Z,24.20
2019-06-07T18:57:26.737Z,21.73
2019-06-07T19:02:31.927Z,23.13
2019-06-07T19:07:37.137Z,24.87
2019-06-07T19:12:43.434Z,23.47
2019-06-07T19:17:49.728Z,23.47
2019-06-07T19:22:56.382Z,24.77
2019-06-07T19:28:01.859Z,26.60
2019-06-07T19:33:07.351Z,24.60
2019-06-07T19:38:12.591Z,24.73
2019-06-07T19:43:17.786Z,25.73
2019-06-07T19:48:22.998Z,26.03
2019-06-07T19:53:28.322Z,25.50
2019-06-07T19:58:33.848Z,26.90
2019-06-07T20:03:40.010Z,27.47
2019-06-07T20:08:45.304Z,24.57
2019-06-07T20:13:50.754Z,23.50
2019-06-07T20:18:56.280Z,21.77
2019-06-07T20:24:17.629Z,24.67
2019-06-07T20:29:24.818Z,21.53
2019-06-07T20:34:16.671Z,23.07
2019-06-07T20:39:22.235Z,20.90
2019-06-07T20:44:27.749Z,22.07
2019-06-07T20:49:33.128Z,21.60
2019-06-07T20:54:38.264Z,20.93
2019-06-07T20:59:43.567Z,20.43
2019-06-07T21:04:48.818Z,19.93
2019-06-07T21:09:54.124Z,19.57
2019-06-07T21:15:02.141Z,18.83
2019-06-07T21:20:08.147Z,19.73
2019-06-07T21:25:13.966Z,20.17
2019-06-07T21:30:19.250Z,20.23
2019-06-07T21:35:26.102Z,24.13
2019-06-07T21:40:33.097Z,21.73
2019-06-07T21:45:38.722Z,20.00
2019-06-07T21:50:46.745Z,20.20
2019-06-07T21:55:51.989Z,23.30
2019-06-07T22:01:23.422Z,18.83
2019-06-07T22:06:28.535Z,22.13
2019-06-07T22:11:34.165Z,22.93
2019-06-07T22:16:40.448Z,19.60
2019-06-07T22:21:59.248Z,21.10
2019-06-07T22:26:52.950Z,19.83
2019-06-07T22:31:58.863Z,20.90
2019-06-07T22:37:05.092Z,20.17
2019-06-07T22:42:11.972Z,19.70
2019-06-07T22:47:18.316Z,17.57
2019-06-07T22:52:23.568Z,16.60
2019-06-07T22:57:30.765Z,15.83
2019-06-07T23:02:36.084Z,13.40
2019-06-07T23:07:41.347Z,15.13
2019-06-07T23:12:46.574Z,15.07
2019-06-07T23:17:51.908Z,11.73
2019-06-07T23:22:57.188Z,12.67
2019-06-07T23:28:02.364Z,13.23
2019-06-07T23:33:07.905Z,12.67
2019-06-07T23:38:13.257Z,11.63
2019-06-07T23:43:19.620Z,12.50
2019-06-07T23:48:25.031Z,13.40
2019-06-07T23:53:30.285Z,10.37
2019-06-07T23:58:35.441Z,12.63
